createdAt,value
2022-12-19T00:03:46.635Z,56.58
2022-12-19T00:08:05.229Z,50.25
2022-12-19T00:12:34.114Z,51.58
2022-12-19T00:16:51.175Z,43.17
2022-12-19T00:21:12.172Z,45.43
2022-12-19T00:25:28.953Z,41.75
2022-12-19T00:29:46.521Z,36.20
2022-12-19T00:34:04.282Z,40.33
2022-12-19T00:38:21.335Z,31.95
2022-12-19T00:42:38.199Z,29.48
2022-12-19T00:46:55.565Z,30.65
2022-12-19T00:51:23.265Z,33.60
2022-12-19T00:55:41.592Z,32.00
2022-12-19T00:59:58.667Z,22.23
2022-12-19T01:04:34.491Z,22.83
2022-12-19T01:08:53.172Z,26.98
2022-12-19T01:13:10.001Z,27.15
2022-12-19T01:17:27.051Z,23.65
2022-12-19T01:21:43.963Z,22.08
2022-12-19T01:26:01.946Z,18.23
2022-12-19T01:30:19.048Z,18.90
2022-12-19T01:34:36.736Z,21.60
2022-12-19T01:38:57.099Z,20.92
2022-12-19T01:43:15.393Z,17.10
2022-12-19T01:47:35.974Z,18.73
2022-12-19T01:51:56.565Z,19.85
2022-12-19T01:56:13.750Z,17.98
2022-12-19T02:00:33.120Z,19.27
2022-12-19T02:04:50.239Z,18.65
2022-12-19T02:09:07.100Z,22.05
2022-12-19T02:13:24.690Z,19.00
2022-12-19T02:18:37.430Z,16.57
2022-12-19T02:23:47.338Z,23.13
2022-12-19T02:28:33.317Z,23.17
2022-12-19T02:33:03.723Z,22.25
2022-12-19T02:37:29.154Z,19.92
2022-12-19T02:41:59.242Z,17.92
2022-12-19T02:50:47.919Z,15.95
2022-12-19T02:55:13.728Z,16.30
2022-12-19T03:00:00.196Z,17.40
2022-12-19T03:04:35.093Z,17.00
2022-12-19T03:09:16.629Z,18.85
2022-12-19T03:14:01.985Z,18.17
2022-12-19T03:18:20.325Z,16.60
2022-12-19T03:22:37.402Z,17.75
2022-12-19T03:27:09.967Z,17.42
2022-12-19T03:31:29.801Z,21.42
2022-12-19T03:35:49.228Z,16.33
2022-12-19T03:40:18.001Z,22.85
2022-12-19T03:44:39.468Z,15.85
2022-12-19T03:48:56.613Z,16.90
2022-12-19T03:53:48.975Z,15.70
2022-12-19T03:58:20.903Z,18.52
2022-12-19T04:02:41.456Z,16.13
2022-12-19T04:06:59.686Z,17.80
2022-12-19T04:11:20.357Z,18.67
2022-12-19T04:15:46.217Z,19.58
2022-12-19T04:20:21.046Z,21.02
2022-12-19T04:24:43.755Z,20.02
2022-12-19T04:29:05.999Z,20.75
2022-12-19T04:33:23.301Z,16.13
2022-12-19T04:37:40.698Z,15.27
2022-12-19T04:41:57.790Z,16.30
2022-12-19T04:46:14.751Z,17.48
2022-12-19T04:50:34.048Z,16.27
2022-12-19T04:54:50.883Z,14.65
2022-12-19T04:59:07.950Z,15.23
2022-12-19T05:03:26.303Z,14.98
2022-12-19T05:12:00.374Z,24.75
2022-12-19T05:16:17.893Z,20.50
2022-12-19T05:20:37.417Z,22.67
2022-12-19T05:24:54.306Z,19.38
2022-12-19T05:29:11.365Z,18.77
2022-12-19T05:33:28.236Z,27.45
2022-12-19T05:37:45.719Z,25.60
2022-12-19T05:42:02.579Z,24.08
2022-12-19T05:46:20.907Z,17.58
2022-12-19T05:50:37.840Z,17.77
2022-12-19T05:54:55.022Z,16.20
2022-12-19T05:59:11.958Z,16.30
2022-12-19T06:03:29.024Z,15.90
2022-12-19T06:07:46.632Z,16.35
2022-12-19T06:12:03.944Z,17.90
2022-12-19T06:16:22.699Z,19.70
2022-12-19T06:20:39.753Z,18.08
2022-12-19T06:24:56.910Z,17.65
2022-12-19T06:29:14.067Z,19.05
2022-12-19T06:33:32.747Z,18.20
2022-12-19T06:37:49.976Z,18.45
2022-12-19T06:42:24.356Z,17.40
2022-12-19T06:46:42.321Z,17.70
2022-12-19T06:50:59.925Z,17.70
2022-12-19T06:55:16.913Z,16.65
2022-12-19T06:59:34.313Z,16.90
2022-12-19T07:03:51.269Z,19.40
2022-12-19T07:08:11.279Z,19.63
2022-12-19T07:12:28.121Z,18.48
2022-12-19T07:16:46.919Z,18.02
2022-12-19T07:21:05.976Z,19.33
2022-12-19T07:25:23.157Z,18.77
2022-12-19T07:29:40.028Z,18.55
2022-12-19T07:33:58.278Z,15.70
2022-12-19T07:42:32.899Z,17.80
2022-12-19T07:46:49.891Z,16.40
2022-12-19T07:51:06.927Z,17.90
2022-12-19T07:55:23.930Z,17.90
2022-12-19T07:59:41.006Z,17.70
2022-12-19T08:03:58.347Z,15.90
2022-12-19T08:08:17.330Z,15.05
2022-12-19T08:12:34.474Z,31.45
2022-12-19T08:17:19.207Z,18.63
2022-12-19T08:21:28.635Z,15.90
2022-12-19T08:25:45.482Z,15.38
2022-12-19T08:30:03.408Z,16.80
2022-12-19T08:38:39.856Z,17.65
2022-12-19T08:42:56.869Z,18.45
2022-12-19T08:47:13.819Z,18.02
2022-12-19T08:51:30.886Z,13.93
2022-12-19T08:55:50.746Z,15.60
2022-12-19T09:00:08.783Z,16.50
2022-12-19T09:05:59.913Z,22.50
2022-12-19T09:09:05.422Z,24.85
2022-12-19T09:13:23.749Z,16.90
2022-12-19T09:17:40.648Z,17.13
2022-12-19T09:21:57.789Z,15.35
2022-12-19T09:26:14.909Z,21.00
2022-12-19T09:30:31.809Z,16.85
2022-12-19T09:34:50.145Z,17.50
2022-12-19T09:39:07.161Z,14.13
2022-12-19T09:43:42.151Z,16.20
2022-12-19T09:48:00.119Z,15.25
2022-12-19T09:52:31.049Z,16.38
2022-12-19T09:56:54.321Z,16.77
2022-12-19T10:01:26.898Z,105.47
2022-12-19T10:07:12.834Z,32.55
2022-12-19T10:12:43.157Z,24.25
2022-12-19T10:16:23.225Z,22.27
2022-12-19T10:21:09.510Z,22.67
2022-12-19T10:25:37.634Z,26.25
2022-12-19T10:30:17.199Z,32.58
2022-12-19T10:34:40.885Z,31.40
2022-12-19T10:39:08.627Z,42.72
2022-12-19T10:43:51.524Z,29.47
2022-12-19T10:48:17.629Z,25.08
2022-12-19T10:52:57.146Z,32.55
2022-12-19T10:57:27.478Z,38.35
2022-12-19T11:01:45.540Z,30.27
2022-12-19T11:06:07.045Z,21.60
2022-12-19T11:14:49.905Z,35.88
2022-12-19T11:21:03.261Z,36.05
2022-12-19T11:29:30.621Z,25.98
2022-12-19T11:30:26.148Z,27.73
2022-12-19T11:34:36.564Z,25.92
2022-12-19T11:38:54.465Z,31.52
2022-12-19T11:43:49.277Z,31.95
2022-12-19T11:48:30.090Z,39.78
2022-12-19T11:53:18.558Z,23.80
2022-12-19T11:57:38.853Z,21.38
2022-12-19T12:02:41.192Z,21.63
2022-12-19T12:07:00.062Z,22.40
2022-12-19T12:20:14.984Z,19.25
2022-12-19T12:26:45.115Z,20.48
2022-12-19T12:31:22.780Z,20.65
2022-12-19T12:31:45.111Z,19.80
2022-12-19T12:42:04.087Z,19.95
2022-12-19T12:46:27.757Z,19.02
2022-12-19T12:50:54.661Z,23.17
2022-12-19T12:55:23.860Z,29.98
2022-12-19T12:59:46.767Z,31.40
2022-12-19T13:04:26.545Z,28.63
2022-12-19T13:08:49.774Z,34.25
2022-12-19T13:13:18.675Z,25.98
2022-12-19T13:17:39.532Z,39.60
2022-12-19T13:22:07.463Z,26.50
2022-12-19T13:26:46.751Z,30.85
2022-12-19T13:31:18.763Z,26.05
2022-12-19T13:36:58.795Z,25.50
2022-12-19T13:40:32.794Z,27.27
2022-12-19T13:44:51.535Z,27.40
2022-12-19T13:49:22.728Z,26.73
2022-12-19T13:53:43.479Z,26.92
2022-12-19T14:02:45.344Z,27.58
2022-12-19T14:07:19.834Z,25.92
2022-12-19T14:13:40.674Z,23.25
2022-12-19T14:16:43.563Z,24.15
2022-12-19T14:22:07.140Z,22.05
2022-12-19T14:28:28.265Z,23.65
2022-12-19T14:36:10.694Z,26.48
2022-12-19T14:39:34.371Z,29.23
2022-12-19T14:52:25.239Z,24.27
2022-12-19T14:54:06.399Z,19.38
2022-12-19T14:54:55.333Z,23.20
2022-12-19T14:58:54.063Z,26.20
2022-12-19T15:02:48.155Z,23.85
2022-12-19T15:07:12.554Z,23.13
2022-12-19T15:12:05.923Z,21.63
2022-12-19T15:16:31.582Z,19.77
2022-12-19T15:20:50.337Z,19.20
2022-12-19T15:25:17.583Z,20.58
2022-12-19T15:29:45.379Z,22.00
2022-12-19T15:34:41.668Z,24.27
2022-12-19T15:39:04.251Z,22.88
2022-12-19T15:44:01.913Z,28.25
2022-12-19T15:48:00.672Z,24.50
2022-12-19T15:52:19.616Z,26.95
2022-12-19T15:56:43.543Z,48.05
2022-12-19T16:01:04.134Z,32.75
2022-12-19T16:05:23.316Z,31.45
2022-12-19T16:09:40.523Z,30.10
2022-12-19T16:13:58.652Z,26.40
2022-12-19T16:18:16.409Z,23.65
2022-12-19T16:22:33.494Z,23.10
2022-12-19T16:26:59.041Z,21.77
2022-12-19T16:31:16.822Z,19.35
2022-12-19T16:36:02.980Z,20.42
2022-12-19T16:40:19.947Z,23.65
2022-12-19T16:44:36.847Z,24.42
2022-12-19T16:48:53.976Z,23.15
2022-12-19T16:53:10.830Z,24.60
2022-12-19T16:57:28.784Z,23.17
2022-12-19T17:01:46.447Z,26.70
2022-12-19T17:06:04.593Z,26.63
2022-12-19T17:10:27.762Z,34.25
2022-12-19T17:14:45.166Z,33.33
2022-12-19T17:19:02.733Z,30.02
2022-12-19T17:23:25.066Z,35.03
2022-12-19T17:27:42.060Z,36.40
2022-12-19T17:31:59.361Z,40.70
2022-12-19T17:36:21.343Z,44.33
2022-12-19T17:40:42.816Z,54.50
2022-12-19T17:44:59.877Z,40.97
2022-12-19T17:49:29.864Z,27.75
2022-12-19T17:53:47.524Z,37.70
2022-12-19T17:58:04.436Z,31.00
2022-12-19T18:02:26.437Z,37.78
2022-12-19T18:06:43.825Z,37.13
2022-12-19T18:11:04.308Z,39.55
2022-12-19T18:15:23.301Z,33.78
2022-12-19T18:19:40.575Z,30.45
2022-12-19T18:23:57.759Z,26.83
2022-12-19T18:28:16.231Z,28.70
2022-12-19T18:36:50.323Z,31.48
2022-12-19T18:41:20.188Z,33.25
2022-12-19T18:45:41.691Z,33.38
2022-12-19T18:49:58.546Z,32.08
2022-12-19T18:54:19.769Z,34.65
2022-12-19T18:58:37.368Z,37.60
2022-12-19T19:03:02.673Z,39.70
2022-12-19T19:07:19.750Z,39.10
2022-12-19T19:11:36.896Z,31.10
2022-12-19T19:15:58.283Z,27.55
2022-12-19T19:20:15.774Z,24.70
2022-12-19T19:24:32.853Z,23.93
2022-12-19T19:28:52.456Z,26.15
2022-12-19T19:33:21.418Z,22.48
2022-12-19T19:37:39.386Z,23.75
2022-12-19T19:41:56.451Z,26.10
2022-12-19T19:46:13.641Z,25.25
2022-12-19T19:50:31.347Z,24.90
2022-12-19T19:54:48.418Z,23.30
2022-12-19T19:59:05.777Z,25.33
2022-12-19T20:03:24.141Z,27.47
2022-12-19T20:11:58.570Z,24.15
2022-12-19T20:16:19.074Z,23.05
2022-12-19T20:20:35.973Z,23.55
2022-12-19T20:24:54.239Z,23.58
2022-12-19T20:29:11.606Z,24.02
2022-12-19T20:33:28.706Z,22.30
2022-12-19T20:37:45.632Z,23.27
2022-12-19T20:42:02.802Z,24.05
2022-12-19T20:46:21.355Z,23.55
2022-12-19T20:50:43.217Z,26.63
2022-12-19T20:55:00.459Z,29.50
2022-12-19T20:59:19.180Z,28.55
2022-12-19T21:03:36.936Z,32.28
2022-12-19T21:07:54.153Z,31.25
2022-12-19T21:12:12.287Z,32.28
2022-12-19T21:16:29.541Z,34.22
2022-12-19T21:20:46.644Z,31.48
2022-12-19T21:25:05.196Z,46.55
2022-12-19T21:29:22.056Z,43.78
2022-12-19T21:33:39.365Z,33.28
2022-12-19T21:37:56.394Z,51.03
2022-12-19T21:42:13.478Z,44.58
2022-12-19T21:46:35.716Z,30.90
2022-12-19T21:50:56.488Z,25.48
2022-12-19T21:55:13.355Z,22.80
2022-12-19T21:59:30.616Z,23.55
2022-12-19T22:03:48.157Z,24.20
2022-12-19T22:08:05.492Z,30.47
2022-12-19T22:12:22.519Z,27.95
2022-12-19T22:16:39.744Z,24.25
2022-12-19T22:20:59.112Z,26.02
2022-12-19T22:25:16.184Z,26.67
2022-12-19T22:29:36.574Z,30.25
2022-12-19T22:33:58.052Z,30.13
2022-12-19T22:38:14.919Z,28.85
2022-12-19T22:42:32.042Z,29.52
2022-12-19T22:46:50.250Z,31.75
2022-12-19T22:51:09.031Z,24.35
2022-12-19T22:55:25.885Z,24.13
2022-12-19T22:59:44.447Z,21.40
2022-12-19T23:04:02.924Z,23.95
2022-12-19T23:08:20.183Z,23.13
2022-12-19T23:12:37.072Z,24.00
2022-12-19T23:16:54.309Z,26.98
2022-12-19T23:21:18.528Z,24.55
2022-12-19T23:25:42.534Z,22.95
2022-12-19T23:29:59.662Z,24.15
2022-12-19T23:34:17.524Z,23.70
2022-12-19T23:38:34.757Z,22.15
2022-12-19T23:42:51.600Z,19.45
2022-12-19T23:47:08.688Z,22.52
2022-12-19T23:51:27.393Z,21.33
2022-12-19T23:55:46.354Z,20.85
